sensor_id;sensor_type;location;lat;lon;timestamp;P1;durP1;ratioP1;P2;durP2;ratioP2
80322;SDS011;69636;52.372;13.610;2023-04-25T00:01:15;6.20;;;4.03;;
80322;SDS011;69636;52.372;13.610;2023-04-25T00:03:41;5.78;;;4.47;;
80322;SDS011;69636;52.372;13.610;2023-04-25T00:06:08;5.30;;;3.50;;
80322;SDS011;69636;52.372;13.610;2023-04-25T00:08:34;4.63;;;3.25;;
80322;SDS011;69636;52.372;13.610;2023-04-25T00:11:01;5.22;;;3.55;;
80322;SDS011;69636;52.372;13.610;2023-04-25T00:13:27;4.57;;;4.07;;
80322;SDS011;69636;52.372;13.610;2023-04-25T00:15:53;4.32;;;3.58;;
80322;SDS011;69636;52.372;13.610;2023-04-25T00:18:19;7.13;;;4.88;;
80322;SDS011;69636;52.372;13.610;2023-04-25T00:20:45;6.10;;;3.08;;
80322;SDS011;69636;52.372;13.610;2023-04-25T00:23:13;6.07;;;3.40;;
80322;SDS011;69636;52.372;13.610;2023-04-25T00:25:39;4.80;;;2.83;;
80322;SDS011;69636;52.372;13.610;2023-04-25T00:28:05;4.30;;;2.45;;
80322;SDS011;69636;52.372;13.610;2023-04-25T00:30:31;5.35;;;2.80;;
80322;SDS011;69636;52.372;13.610;2023-04-25T00:32:57;5.80;;;2.47;;
80322;SDS011;69636;52.372;13.610;2023-04-25T00:35:23;4.78;;;2.75;;
80322;SDS011;69636;52.372;13.610;2023-04-25T00:37:49;5.05;;;2.75;;
80322;SDS011;69636;52.372;13.610;2023-04-25T00:40:17;5.07;;;2.78;;
80322;SDS011;69636;52.372;13.610;2023-04-25T00:42:43;8.38;;;2.63;;
80322;SDS011;69636;52.372;13.610;2023-04-25T00:45:12;7.38;;;4.00;;
80322;SDS011;69636;52.372;13.610;2023-04-25T00:47:39;5.82;;;3.15;;
80322;SDS011;69636;52.372;13.610;2023-04-25T00:50:06;4.40;;;2.67;;
80322;SDS011;69636;52.372;13.610;2023-04-25T00:52:34;5.38;;;3.10;;
80322;SDS011;69636;52.372;13.610;2023-04-25T00:55:01;5.18;;;2.70;;
80322;SDS011;69636;52.372;13.610;2023-04-25T00:57:28;6.88;;;2.45;;
80322;SDS011;69636;52.372;13.610;2023-04-25T00:59:55;5.25;;;3.08;;
80322;SDS011;69636;52.372;13.610;2023-04-25T01:02:21;5.68;;;3.03;;
80322;SDS011;69636;52.372;13.610;2023-04-25T01:04:48;5.28;;;3.35;;
80322;SDS011;69636;52.372;13.610;2023-04-25T01:07:14;6.53;;;3.45;;
80322;SDS011;69636;52.372;13.610;2023-04-25T01:09:40;5.43;;;3.50;;
80322;SDS011;69636;52.372;13.610;2023-04-25T01:12:07;4.97;;;3.17;;
80322;SDS011;69636;52.372;13.610;2023-04-25T01:14:34;8.23;;;3.65;;
80322;SDS011;69636;52.372;13.610;2023-04-25T01:17:00;7.03;;;3.60;;
80322;SDS011;69636;52.372;13.610;2023-04-25T01:19:27;10.82;;;3.38;;
80322;SDS011;69636;52.372;13.610;2023-04-25T01:21:55;5.70;;;3.22;;
80322;SDS011;69636;52.372;13.610;2023-04-25T01:24:21;4.93;;;3.05;;
80322;SDS011;69636;52.372;13.610;2023-04-25T01:26:47;7.05;;;3.10;;
80322;SDS011;69636;52.372;13.610;2023-04-25T01:29:14;7.70;;;3.30;;
80322;SDS011;69636;52.372;13.610;2023-04-25T01:31:41;5.82;;;3.22;;
80322;SDS011;69636;52.372;13.610;2023-04-25T01:34:08;5.57;;;3.70;;
80322;SDS011;69636;52.372;13.610;2023-04-25T01:36:34;8.35;;;3.13;;
80322;SDS011;69636;52.372;13.610;2023-04-25T01:39:02;5.78;;;3.83;;
80322;SDS011;69636;52.372;13.610;2023-04-25T01:41:28;6.50;;;3.15;;
80322;SDS011;69636;52.372;13.610;2023-04-25T01:43:54;5.43;;;2.80;;
80322;SDS011;69636;52.372;13.610;2023-04-25T01:46:21;5.43;;;3.15;;
80322;SDS011;69636;52.372;13.610;2023-04-25T01:48:47;6.18;;;2.55;;
80322;SDS011;69636;52.372;13.610;2023-04-25T01:51:13;6.20;;;2.97;;
80322;SDS011;69636;52.372;13.610;2023-04-25T01:53:39;6.10;;;3.33;;
80322;SDS011;69636;52.372;13.610;2023-04-25T01:56:07;6.50;;;3.10;;
80322;SDS011;69636;52.372;13.610;2023-04-25T01:58:33;7.10;;;3.22;;
80322;SDS011;69636;52.372;13.610;2023-04-25T02:01:00;5.10;;;3.33;;
80322;SDS011;69636;52.372;13.610;2023-04-25T02:03:26;6.70;;;4.40;;
80322;SDS011;69636;52.372;13.610;2023-04-25T02:05:52;6.53;;;3.70;;
80322;SDS011;69636;52.372;13.610;2023-04-25T02:08:18;6.72;;;3.22;;
80322;SDS011;69636;52.372;13.610;2023-04-25T02:10:44;7.03;;;3.53;;
80322;SDS011;69636;52.372;13.610;2023-04-25T02:13:11;4.82;;;3.33;;
80322;SDS011;69636;52.372;13.610;2023-04-25T02:15:37;7.80;;;4.65;;
80322;SDS011;69636;52.372;13.610;2023-04-25T02:18:03;7.63;;;3.53;;
80322;SDS011;69636;52.372;13.610;2023-04-25T02:20:30;5.80;;;3.13;;
80322;SDS011;69636;52.372;13.610;2023-04-25T02:22:56;6.55;;;4.35;;
80322;SDS011;69636;52.372;13.610;2023-04-25T02:25:22;6.55;;;3.75;;
80322;SDS011;69636;52.372;13.610;2023-04-25T02:27:48;9.50;;;3.90;;
80322;SDS011;69636;52.372;13.610;2023-04-25T02:30:16;10.25;;;3.42;;
80322;SDS011;69636;52.372;13.610;2023-04-25T02:32:42;5.97;;;3.80;;
80322;SDS011;69636;52.372;13.610;2023-04-25T02:35:09;5.82;;;3.72;;
80322;SDS011;69636;52.372;13.610;2023-04-25T02:37:35;6.10;;;3.72;;
80322;SDS011;69636;52.372;13.610;2023-04-25T02:40:03;6.88;;;3.47;;
80322;SDS011;69636;52.372;13.610;2023-04-25T02:42:30;5.75;;;3.65;;
80322;SDS011;69636;52.372;13.610;2023-04-25T02:44:57;5.85;;;3.38;;
80322;SDS011;69636;52.372;13.610;2023-04-25T02:47:24;7.60;;;3.90;;
80322;SDS011;69636;52.372;13.610;2023-04-25T02:49:51;6.18;;;4.15;;
80322;SDS011;69636;52.372;13.610;2023-04-25T02:52:17;5.38;;;3.88;;
80322;SDS011;69636;52.372;13.610;2023-04-25T02:54:43;6.50;;;3.92;;
80322;SDS011;69636;52.372;13.610;2023-04-25T02:57:09;6.72;;;3.50;;
80322;SDS011;69636;52.372;13.610;2023-04-25T02:59:35;8.60;;;3.83;;
80322;SDS011;69636;52.372;13.610;2023-04-25T03:02:02;7.97;;;4.22;;
80322;SDS011;69636;52.372;13.610;2023-04-25T03:04:29;7.45;;;4.47;;
80322;SDS011;69636;52.372;13.610;2023-04-25T03:06:55;10.18;;;4.80;;
80322;SDS011;69636;52.372;13.610;2023-04-25T03:09:21;5.85;;;3.83;;
80322;SDS011;69636;52.372;13.610;2023-04-25T03:11:48;6.88;;;4.38;;
80322;SDS011;69636;52.372;13.610;2023-04-25T03:14:14;8.25;;;4.32;;
80322;SDS011;69636;52.372;13.610;2023-04-25T03:16:40;6.63;;;4.72;;
80322;SDS011;69636;52.372;13.610;2023-04-25T03:19:06;6.25;;;3.90;;
80322;SDS011;69636;52.372;13.610;2023-04-25T03:21:34;9.30;;;4.75;;
80322;SDS011;69636;52.372;13.610;2023-04-25T03:24:02;7.07;;;4.95;;
80322;SDS011;69636;52.372;13.610;2023-04-25T03:26:29;7.72;;;4.82;;
80322;SDS011;69636;52.372;13.610;2023-04-25T03:28:55;6.50;;;4.38;;
80322;SDS011;69636;52.372;13.610;2023-04-25T03:31:21;6.38;;;3.70;;
80322;SDS011;69636;52.372;13.610;2023-04-25T03:33:47;7.22;;;4.32;;
80322;SDS011;69636;52.372;13.610;2023-04-25T03:36:13;9.85;;;5.03;;
80322;SDS011;69636;52.372;13.610;2023-04-25T03:38:41;6.90;;;4.38;;
80322;SDS011;69636;52.372;13.610;2023-04-25T03:41:07;8.05;;;6.13;;
80322;SDS011;69636;52.372;13.610;2023-04-25T03:43:33;8.98;;;5.30;;
80322;SDS011;69636;52.372;13.610;2023-04-25T03:46:00;8.60;;;4.28;;
80322;SDS011;69636;52.372;13.610;2023-04-25T03:48:26;8.30;;;4.50;;
80322;SDS011;69636;52.372;13.610;2023-04-25T03:50:53;8.52;;;4.28;;
80322;SDS011;69636;52.372;13.610;2023-04-25T03:53:19;6.90;;;4.25;;
80322;SDS011;69636;52.372;13.610;2023-04-25T03:55:46;6.93;;;4.78;;
80322;SDS011;69636;52.372;13.610;2023-04-25T03:58:13;6.88;;;4.45;;
80322;SDS011;69636;52.372;13.610;2023-04-25T04:00:39;6.35;;;4.38;;
80322;SDS011;69636;52.372;13.610;2023-04-25T04:03:05;8.88;;;5.03;;
80322;SDS011;69636;52.372;13.610;2023-04-25T04:05:31;7.70;;;4.55;;
80322;SDS011;69636;52.372;13.610;2023-04-25T04:07:57;8.98;;;4.90;;
80322;SDS011;69636;52.372;13.610;2023-04-25T04:10:24;9.52;;;4.82;;
80322;SDS011;69636;52.372;13.610;2023-04-25T04:12:51;6.70;;;4.40;;
80322;SDS011;69636;52.372;13.610;2023-04-25T04:15:17;10.35;;;4.65;;
80322;SDS011;69636;52.372;13.610;2023-04-25T04:17:43;5.93;;;4.15;;
80322;SDS011;69636;52.372;13.610;2023-04-25T04:20:10;8.90;;;4.13;;
80322;SDS011;69636;52.372;13.610;2023-04-25T04:22:36;9.25;;;4.47;;
80322;SDS011;69636;52.372;13.610;2023-04-25T04:25:02;7.22;;;5.80;;
80322;SDS011;69636;52.372;13.610;2023-04-25T04:27:28;7.00;;;4.63;;
80322;SDS011;69636;52.372;13.610;2023-04-25T04:29:56;6.95;;;4.82;;
80322;SDS011;69636;52.372;13.610;2023-04-25T04:32:22;7.50;;;4.75;;
80322;SDS011;69636;52.372;13.610;2023-04-25T04:34:48;6.20;;;4.35;;
80322;SDS011;69636;52.372;13.610;2023-04-25T04:37:14;9.18;;;4.75;;
80322;SDS011;69636;52.372;13.610;2023-04-25T04:39:40;9.50;;;4.20;;
80322;SDS011;69636;52.372;13.610;2023-04-25T04:42:07;7.03;;;4.40;;
80322;SDS011;69636;52.372;13.610;2023-04-25T04:44:33;8.10;;;4.88;;
80322;SDS011;69636;52.372;13.610;2023-04-25T04:47:00;9.13;;;4.90;;
80322;SDS011;69636;52.372;13.610;2023-04-25T04:49:26;8.23;;;5.35;;
80322;SDS011;69636;52.372;13.610;2023-04-25T04:51:52;9.00;;;4.68;;
80322;SDS011;69636;52.372;13.610;2023-04-25T04:54:18;8.38;;;5.45;;
80322;SDS011;69636;52.372;13.610;2023-04-25T04:56:45;9.55;;;5.10;;
80322;SDS011;69636;52.372;13.610;2023-04-25T04:59:11;8.45;;;5.50;;
80322;SDS011;69636;52.372;13.610;2023-04-25T05:01:37;7.30;;;4.68;;
80322;SDS011;69636;52.372;13.610;2023-04-25T05:04:04;9.85;;;4.80;;
80322;SDS011;69636;52.372;13.610;2023-04-25T05:06:31;10.23;;;5.43;;
80322;SDS011;69636;52.372;13.610;2023-04-25T05:08:57;7.32;;;4.65;;
80322;SDS011;69636;52.372;13.610;2023-04-25T05:11:23;10.13;;;5.30;;
80322;SDS011;69636;52.372;13.610;2023-04-25T05:13:51;8.95;;;5.30;;
80322;SDS011;69636;52.372;13.610;2023-04-25T05:16:17;9.45;;;4.85;;
80322;SDS011;69636;52.372;13.610;2023-04-25T05:18:43;8.27;;;6.00;;
80322;SDS011;69636;52.372;13.610;2023-04-25T05:21:11;7.03;;;4.60;;
80322;SDS011;69636;52.372;13.610;2023-04-25T05:23:37;9.50;;;5.45;;
80322;SDS011;69636;52.372;13.610;2023-04-25T05:26:03;9.52;;;5.95;;
80322;SDS011;69636;52.372;13.610;2023-04-25T05:28:30;10.73;;;5.32;;
80322;SDS011;69636;52.372;13.610;2023-04-25T05:30:56;6.88;;;4.53;;
80322;SDS011;69636;52.372;13.610;2023-04-25T05:33:22;9.88;;;4.75;;
80322;SDS011;69636;52.372;13.610;2023-04-25T05:35:49;8.73;;;5.57;;
80322;SDS011;69636;52.372;13.610;2023-04-25T05:38:17;8.10;;;5.22;;
80322;SDS011;69636;52.372;13.610;2023-04-25T05:40:43;9.25;;;5.38;;
80322;SDS011;69636;52.372;13.610;2023-04-25T05:43:09;8.52;;;5.10;;
80322;SDS011;69636;52.372;13.610;2023-04-25T05:45:35;9.82;;;5.65;;
80322;SDS011;69636;52.372;13.610;2023-04-25T05:48:02;8.75;;;4.80;;
80322;SDS011;69636;52.372;13.610;2023-04-25T05:50:28;8.38;;;5.15;;
80322;SDS011;69636;52.372;13.610;2023-04-25T05:52:54;9.23;;;5.63;;
80322;SDS011;69636;52.372;13.610;2023-04-25T05:55:21;7.85;;;5.30;;
80322;SDS011;69636;52.372;13.610;2023-04-25T05:57:47;7.85;;;4.93;;
80322;SDS011;69636;52.372;13.610;2023-04-25T06:00:14;7.30;;;5.20;;
80322;SDS011;69636;52.372;13.610;2023-04-25T06:02:40;10.73;;;5.00;;
80322;SDS011;69636;52.372;13.610;2023-04-25T06:05:07;6.32;;;4.60;;
80322;SDS011;69636;52.372;13.610;2023-04-25T06:07:33;10.02;;;4.60;;
80322;SDS011;69636;52.372;13.610;2023-04-25T06:10:00;11.57;;;5.65;;
80322;SDS011;69636;52.372;13.610;2023-04-25T06:12:27;10.57;;;5.38;;
80322;SDS011;69636;52.372;13.610;2023-04-25T06:14:53;8.90;;;5.03;;
80322;SDS011;69636;52.372;13.610;2023-04-25T06:17:19;13.38;;;6.45;;
80322;SDS011;69636;52.372;13.610;2023-04-25T06:19:45;7.93;;;5.63;;
80322;SDS011;69636;52.372;13.610;2023-04-25T06:22:11;9.32;;;4.85;;
80322;SDS011;69636;52.372;13.610;2023-04-25T06:24:37;12.80;;;5.13;;
80322;SDS011;69636;52.372;13.610;2023-04-25T06:27:03;9.18;;;4.97;;
80322;SDS011;69636;52.372;13.610;2023-04-25T06:29:31;8.75;;;4.78;;
80322;SDS011;69636;52.372;13.610;2023-04-25T06:31:57;10.50;;;5.13;;
80322;SDS011;69636;52.372;13.610;2023-04-25T06:34:23;8.32;;;5.13;;
80322;SDS011;69636;52.372;13.610;2023-04-25T06:36:49;10.02;;;4.90;;
80322;SDS011;69636;52.372;13.610;2023-04-25T06:39:15;9.50;;;5.03;;
80322;SDS011;69636;52.372;13.610;2023-04-25T06:41:42;10.38;;;5.75;;
80322;SDS011;69636;52.372;13.610;2023-04-25T06:44:08;11.55;;;6.55;;
80322;SDS011;69636;52.372;13.610;2023-04-25T06:46:35;8.77;;;5.25;;
80322;SDS011;69636;52.372;13.610;2023-04-25T06:49:01;9.23;;;5.15;;
80322;SDS011;69636;52.372;13.610;2023-04-25T06:51:27;9.00;;;5.13;;
80322;SDS011;69636;52.372;13.610;2023-04-25T06:53:53;9.52;;;5.70;;
80322;SDS011;69636;52.372;13.610;2023-04-25T06:56:19;9.35;;;4.70;;
80322;SDS011;69636;52.372;13.610;2023-04-25T06:58:45;10.40;;;5.43;;
80322;SDS011;69636;52.372;13.610;2023-04-25T07:01:11;7.85;;;5.10;;
80322;SDS011;69636;52.372;13.610;2023-04-25T07:03:39;10.10;;;5.25;;
80322;SDS011;69636;52.372;13.610;2023-04-25T07:06:05;9.75;;;5.18;;
80322;SDS011;69636;52.372;13.610;2023-04-25T07:10:57;8.50;;;5.40;;
80322;SDS011;69636;52.372;13.610;2023-04-25T07:13:23;13.02;;;5.35;;
80322;SDS011;69636;52.372;13.610;2023-04-25T07:15:51;8.48;;;5.35;;
80322;SDS011;69636;52.372;13.610;2023-04-25T07:18:17;9.45;;;5.40;;
80322;SDS011;69636;52.372;13.610;2023-04-25T07:20:44;10.30;;;5.43;;
80322;SDS011;69636;52.372;13.610;2023-04-25T07:23:10;10.20;;;5.95;;
80322;SDS011;69636;52.372;13.610;2023-04-25T07:25:36;8.18;;;5.50;;
80322;SDS011;69636;52.372;13.610;2023-04-25T07:28:02;10.15;;;5.43;;
80322;SDS011;69636;52.372;13.610;2023-04-25T07:30:28;8.90;;;5.00;;
80322;SDS011;69636;52.372;13.610;2023-04-25T07:32:54;11.40;;;5.82;;
80322;SDS011;69636;52.372;13.610;2023-04-25T07:35:21;8.75;;;5.05;;
80322;SDS011;69636;52.372;13.610;2023-04-25T07:37:48;8.82;;;5.32;;
80322;SDS011;69636;52.372;13.610;2023-04-25T07:40:14;7.97;;;5.07;;
80322;SDS011;69636;52.372;13.610;2023-04-25T07:42:40;7.65;;;5.00;;
80322;SDS011;69636;52.372;13.610;2023-04-25T07:45:07;8.85;;;4.70;;
80322;SDS011;69636;52.372;13.610;2023-04-25T07:47:33;9.35;;;5.03;;
80322;SDS011;69636;52.372;13.610;2023-04-25T07:49:59;9.68;;;5.43;;
80322;SDS011;69636;52.372;13.610;2023-04-25T07:52:25;9.23;;;4.90;;
80322;SDS011;69636;52.372;13.610;2023-04-25T07:54:53;8.05;;;4.93;;
80322;SDS011;69636;52.372;13.610;2023-04-25T07:57:19;9.63;;;4.07;;
80322;SDS011;69636;52.372;13.610;2023-04-25T07:59:45;7.82;;;4.78;;
80322;SDS011;69636;52.372;13.610;2023-04-25T08:02:11;7.32;;;3.97;;
80322;SDS011;69636;52.372;13.610;2023-04-25T08:04:37;11.70;;;3.80;;
80322;SDS011;69636;52.372;13.610;2023-04-25T08:07:03;11.15;;;6.20;;
80322;SDS011;69636;52.372;13.610;2023-04-25T08:09:29;9.18;;;4.35;;
80322;SDS011;69636;52.372;13.610;2023-04-25T08:11:57;11.13;;;4.38;;
80322;SDS011;69636;52.372;13.610;2023-04-25T08:14:23;10.38;;;4.07;;
80322;SDS011;69636;52.372;13.610;2023-04-25T08:16:49;9.57;;;3.97;;
80322;SDS011;69636;52.372;13.610;2023-04-25T08:19:15;9.40;;;3.75;;
80322;SDS011;69636;52.372;13.610;2023-04-25T08:21:41;10.35;;;4.13;;
80322;SDS011;69636;52.372;13.610;2023-04-25T08:24:07;8.77;;;4.40;;
80322;SDS011;69636;52.372;13.610;2023-04-25T08:26:33;12.10;;;4.53;;
80322;SDS011;69636;52.372;13.610;2023-04-25T08:29:01;7.35;;;3.60;;
80322;SDS011;69636;52.372;13.610;2023-04-25T08:31:27;8.07;;;3.97;;
80322;SDS011;69636;52.372;13.610;2023-04-25T08:33:53;10.52;;;5.10;;
80322;SDS011;69636;52.372;13.610;2023-04-25T08:36:19;15.00;;;4.85;;
80322;SDS011;69636;52.372;13.610;2023-04-25T08:38:45;11.63;;;4.88;;
80322;SDS011;69636;52.372;13.610;2023-04-25T08:41:11;13.20;;;5.82;;
80322;SDS011;69636;52.372;13.610;2023-04-25T08:43:38;13.07;;;4.25;;
80322;SDS011;69636;52.372;13.610;2023-04-25T08:46:09;10.70;;;4.38;;
80322;SDS011;69636;52.372;13.610;2023-04-25T08:48:38;11.05;;;4.50;;
80322;SDS011;69636;52.372;13.610;2023-04-25T08:51:06;10.70;;;4.65;;
80322;SDS011;69636;52.372;13.610;2023-04-25T08:53:33;8.65;;;5.60;;
80322;SDS011;69636;52.372;13.610;2023-04-25T08:56:00;12.45;;;4.10;;
80322;SDS011;69636;52.372;13.610;2023-04-25T08:58:27;10.60;;;4.82;;
80322;SDS011;69636;52.372;13.610;2023-04-25T09:00:54;8.95;;;4.47;;
80322;SDS011;69636;52.372;13.610;2023-04-25T09:03:21;12.27;;;5.35;;
80322;SDS011;69636;52.372;13.610;2023-04-25T09:05:47;11.20;;;4.28;;
80322;SDS011;69636;52.372;13.610;2023-04-25T09:08:14;12.00;;;5.93;;
80322;SDS011;69636;52.372;13.610;2023-04-25T09:10:40;10.27;;;4.93;;
80322;SDS011;69636;52.372;13.610;2023-04-25T09:13:07;15.23;;;7.05;;
80322;SDS011;69636;52.372;13.610;2023-04-25T09:15:39;12.50;;;5.30;;
80322;SDS011;69636;52.372;13.610;2023-04-25T09:18:12;14.65;;;6.10;;
80322;SDS011;69636;52.372;13.610;2023-04-25T09:20:42;14.60;;;4.95;;
80322;SDS011;69636;52.372;13.610;2023-04-25T09:23:08;12.80;;;4.40;;
80322;SDS011;69636;52.372;13.610;2023-04-25T09:25:35;11.20;;;3.47;;
80322;SDS011;69636;52.372;13.610;2023-04-25T09:28:03;10.20;;;4.30;;
80322;SDS011;69636;52.372;13.610;2023-04-25T09:30:30;7.22;;;2.45;;
80322;SDS011;69636;52.372;13.610;2023-04-25T09:32:57;8.90;;;3.63;;
80322;SDS011;69636;52.372;13.610;2023-04-25T09:35:32;10.82;;;3.42;;
80322;SDS011;69636;52.372;13.610;2023-04-25T09:38:02;9.88;;;3.45;;
80322;SDS011;69636;52.372;13.610;2023-04-25T09:40:33;8.50;;;2.75;;
80322;SDS011;69636;52.372;13.610;2023-04-25T09:42:59;8.50;;;3.42;;
80322;SDS011;69636;52.372;13.610;2023-04-25T09:45:25;11.23;;;3.80;;
80322;SDS011;69636;52.372;13.610;2023-04-25T09:47:55;8.40;;;2.80;;
80322;SDS011;69636;52.372;13.610;2023-04-25T09:50:21;10.73;;;3.53;;
80322;SDS011;69636;52.372;13.610;2023-04-25T09:52:48;10.07;;;3.50;;
80322;SDS011;69636;52.372;13.610;2023-04-25T09:55:29;8.75;;;2.85;;
80322;SDS011;69636;52.372;13.610;2023-04-25T09:57:57;8.73;;;2.85;;
80322;SDS011;69636;52.372;13.610;2023-04-25T10:00:29;10.05;;;3.50;;
80322;SDS011;69636;52.372;13.610;2023-04-25T10:05:26;8.15;;;3.35;;
80322;SDS011;69636;52.372;13.610;2023-04-25T10:07:53;9.50;;;3.35;;
80322;SDS011;69636;52.372;13.610;2023-04-25T10:10:22;10.80;;;2.90;;
80322;SDS011;69636;52.372;13.610;2023-04-25T10:12:49;7.13;;;2.90;;
80322;SDS011;69636;52.372;13.610;2023-04-25T10:15:16;8.88;;;2.88;;
80322;SDS011;69636;52.372;13.610;2023-04-25T10:17:42;9.77;;;3.42;;
80322;SDS011;69636;52.372;13.610;2023-04-25T10:20:09;10.13;;;2.78;;
80322;SDS011;69636;52.372;13.610;2023-04-25T10:22:36;10.30;;;3.85;;
80322;SDS011;69636;52.372;13.610;2023-04-25T10:25:05;11.52;;;3.72;;
80322;SDS011;69636;52.372;13.610;2023-04-25T10:27:34;10.68;;;3.60;;
80322;SDS011;69636;52.372;13.610;2023-04-25T10:30:00;9.55;;;4.80;;
80322;SDS011;69636;52.372;13.610;2023-04-25T10:32:27;9.07;;;3.30;;
80322;SDS011;69636;52.372;13.610;2023-04-25T10:34:53;9.15;;;3.17;;
80322;SDS011;69636;52.372;13.610;2023-04-25T10:37:20;7.97;;;2.95;;
80322;SDS011;69636;52.372;13.610;2023-04-25T10:39:47;9.57;;;2.75;;
80322;SDS011;69636;52.372;13.610;2023-04-25T10:42:13;8.38;;;2.55;;
80322;SDS011;69636;52.372;13.610;2023-04-25T10:44:40;7.20;;;2.88;;
80322;SDS011;69636;52.372;13.610;2023-04-25T10:47:34;11.30;;;2.72;;
80322;SDS011;69636;52.372;13.610;2023-04-25T10:50:04;7.95;;;2.40;;
80322;SDS011;69636;52.372;13.610;2023-04-25T10:52:32;6.43;;;2.30;;
80322;SDS011;69636;52.372;13.610;2023-04-25T10:54:58;10.68;;;2.78;;
80322;SDS011;69636;52.372;13.610;2023-04-25T10:57:28;8.02;;;2.30;;
80322;SDS011;69636;52.372;13.610;2023-04-25T10:59:59;8.32;;;2.28;;
80322;SDS011;69636;52.372;13.610;2023-04-25T11:02:26;12.57;;;5.15;;
80322;SDS011;69636;52.372;13.610;2023-04-25T11:04:53;7.68;;;3.35;;
80322;SDS011;69636;52.372;13.610;2023-04-25T11:07:22;6.55;;;2.97;;
80322;SDS011;69636;52.372;13.610;2023-04-25T11:12:20;7.15;;;2.78;;
80322;SDS011;69636;52.372;13.610;2023-04-25T11:14:46;8.10;;;2.22;;
80322;SDS011;69636;52.372;13.610;2023-04-25T11:17:13;7.13;;;2.15;;
80322;SDS011;69636;52.372;13.610;2023-04-25T11:19:39;8.90;;;2.72;;
80322;SDS011;69636;52.372;13.610;2023-04-25T11:22:05;7.65;;;2.10;;
80322;SDS011;69636;52.372;13.610;2023-04-25T11:24:32;6.35;;;2.88;;
80322;SDS011;69636;52.372;13.610;2023-04-25T11:27:00;9.88;;;3.00;;
80322;SDS011;69636;52.372;13.610;2023-04-25T11:29:27;8.23;;;2.42;;
80322;SDS011;69636;52.372;13.610;2023-04-25T11:31:54;5.57;;;2.15;;
80322;SDS011;69636;52.372;13.610;2023-04-25T11:34:22;7.22;;;2.88;;
80322;SDS011;69636;52.372;13.610;2023-04-25T11:36:48;8.50;;;3.00;;
80322;SDS011;69636;52.372;13.610;2023-04-25T11:39:14;6.95;;;2.58;;
80322;SDS011;69636;52.372;13.610;2023-04-25T11:41:40;8.25;;;4.20;;
80322;SDS011;69636;52.372;13.610;2023-04-25T11:44:07;7.85;;;3.10;;
80322;SDS011;69636;52.372;13.610;2023-04-25T11:46:33;11.60;;;3.47;;
80322;SDS011;69636;52.372;13.610;2023-04-25T11:48:59;7.32;;;3.40;;
80322;SDS011;69636;52.372;13.610;2023-04-25T11:51:27;9.88;;;2.72;;
80322;SDS011;69636;52.372;13.610;2023-04-25T11:53:53;9.38;;;3.47;;
80322;SDS011;69636;52.372;13.610;2023-04-25T11:56:19;5.20;;;2.25;;
80322;SDS011;69636;52.372;13.610;2023-04-25T11:58:56;7.50;;;2.15;;
80322;SDS011;69636;52.372;13.610;2023-04-25T12:01:26;7.30;;;2.00;;
80322;SDS011;69636;52.372;13.610;2023-04-25T12:03:53;7.75;;;2.92;;
80322;SDS011;69636;52.372;13.610;2023-04-25T12:06:19;6.57;;;2.60;;
80322;SDS011;69636;52.372;13.610;2023-04-25T12:09:00;7.15;;;2.72;;
80322;SDS011;69636;52.372;13.610;2023-04-25T12:11:26;5.30;;;2.15;;
80322;SDS011;69636;52.372;13.610;2023-04-25T12:13:52;7.10;;;2.45;;
80322;SDS011;69636;52.372;13.610;2023-04-25T12:16:18;7.07;;;2.15;;
80322;SDS011;69636;52.372;13.610;2023-04-25T12:18:45;5.97;;;2.03;;
80322;SDS011;69636;52.372;13.610;2023-04-25T12:21:11;5.70;;;1.80;;
80322;SDS011;69636;52.372;13.610;2023-04-25T12:23:38;5.15;;;1.75;;
80322;SDS011;69636;52.372;13.610;2023-04-25T12:26:05;4.32;;;2.80;;
80322;SDS011;69636;52.372;13.610;2023-04-25T12:28:32;7.32;;;2.28;;
80322;SDS011;69636;52.372;13.610;2023-04-25T12:30:59;6.88;;;2.17;;
80322;SDS011;69636;52.372;13.610;2023-04-25T12:33:27;7.53;;;1.70;;
80322;SDS011;69636;52.372;13.610;2023-04-25T12:35:54;5.72;;;1.80;;
80322;SDS011;69636;52.372;13.610;2023-04-25T12:38:21;7.65;;;1.92;;
80322;SDS011;69636;52.372;13.610;2023-04-25T12:40:47;6.78;;;1.85;;
80322;SDS011;69636;52.372;13.610;2023-04-25T12:43:15;7.15;;;2.20;;
80322;SDS011;69636;52.372;13.610;2023-04-25T12:45:41;6.72;;;2.40;;
80322;SDS011;69636;52.372;13.610;2023-04-25T12:48:07;6.97;;;2.05;;
80322;SDS011;69636;52.372;13.610;2023-04-25T12:50:33;5.15;;;2.38;;
80322;SDS011;69636;52.372;13.610;2023-04-25T12:52:59;5.85;;;1.63;;
80322;SDS011;69636;52.372;13.610;2023-04-25T12:55:25;5.28;;;1.83;;
80322;SDS011;69636;52.372;13.610;2023-04-25T12:57:52;6.68;;;2.25;;
80322;SDS011;69636;52.372;13.610;2023-04-25T13:00:19;5.90;;;1.65;;
80322;SDS011;69636;52.372;13.610;2023-04-25T13:02:46;6.22;;;2.05;;
80322;SDS011;69636;52.372;13.610;2023-04-25T13:05:12;5.43;;;1.52;;
80322;SDS011;69636;52.372;13.610;2023-04-25T13:07:38;4.75;;;1.63;;
80322;SDS011;69636;52.372;13.610;2023-04-25T13:10:04;5.40;;;1.73;;
80322;SDS011;69636;52.372;13.610;2023-04-25T13:12:31;5.05;;;2.03;;
80322;SDS011;69636;52.372;13.610;2023-04-25T13:14:57;7.75;;;1.70;;
80322;SDS011;69636;52.372;13.610;2023-04-25T13:17:25;5.65;;;2.38;;
80322;SDS011;69636;52.372;13.610;2023-04-25T13:19:51;5.75;;;1.80;;
80322;SDS011;69636;52.372;13.610;2023-04-25T13:22:17;6.80;;;2.28;;
80322;SDS011;69636;52.372;13.610;2023-04-25T13:24:43;6.85;;;2.15;;
80322;SDS011;69636;52.372;13.610;2023-04-25T13:27:09;8.18;;;2.70;;
80322;SDS011;69636;52.372;13.610;2023-04-25T13:29:35;7.32;;;1.63;;
80322;SDS011;69636;52.372;13.610;2023-04-25T13:32:01;6.00;;;1.90;;
80322;SDS011;69636;52.372;13.610;2023-04-25T13:34:29;4.00;;;1.85;;
80322;SDS011;69636;52.372;13.610;2023-04-25T13:36:55;3.72;;;1.67;;
80322;SDS011;69636;52.372;13.610;2023-04-25T13:39:21;6.38;;;2.63;;
80322;SDS011;69636;52.372;13.610;2023-04-25T13:41:47;4.60;;;1.52;;
80322;SDS011;69636;52.372;13.610;2023-04-25T13:44:13;6.13;;;2.35;;
80322;SDS011;69636;52.372;13.610;2023-04-25T13:46:39;4.65;;;1.73;;
80322;SDS011;69636;52.372;13.610;2023-04-25T13:49:06;15.23;;;6.97;;
80322;SDS011;69636;52.372;13.610;2023-04-25T13:51:33;5.47;;;2.10;;
80322;SDS011;69636;52.372;13.610;2023-04-25T13:53:59;5.85;;;1.67;;
80322;SDS011;69636;52.372;13.610;2023-04-25T13:56:26;5.32;;;2.00;;
80322;SDS011;69636;52.372;13.610;2023-04-25T13:58:52;4.80;;;2.20;;
80322;SDS011;69636;52.372;13.610;2023-04-25T14:01:18;5.18;;;1.63;;
80322;SDS011;69636;52.372;13.610;2023-04-25T14:03:44;5.30;;;1.67;;
80322;SDS011;69636;52.372;13.610;2023-04-25T14:06:10;5.13;;;1.52;;
80322;SDS011;69636;52.372;13.610;2023-04-25T14:08:38;5.78;;;1.58;;
80322;SDS011;69636;52.372;13.610;2023-04-25T14:11:04;4.00;;;1.70;;
80322;SDS011;69636;52.372;13.610;2023-04-25T14:13:30;4.00;;;1.50;;
80322;SDS011;69636;52.372;13.610;2023-04-25T14:15:56;7.68;;;1.88;;
80322;SDS011;69636;52.372;13.610;2023-04-25T14:18:22;5.65;;;2.15;;
80322;SDS011;69636;52.372;13.610;2023-04-25T14:20:48;5.05;;;1.90;;
80322;SDS011;69636;52.372;13.610;2023-04-25T14:23:15;4.57;;;2.13;;
80322;SDS011;69636;52.372;13.610;2023-04-25T14:25:42;5.68;;;2.00;;
80322;SDS011;69636;52.372;13.610;2023-04-25T14:28:09;4.50;;;1.75;;
80322;SDS011;69636;52.372;13.610;2023-04-25T14:30:35;5.38;;;1.95;;
80322;SDS011;69636;52.372;13.610;2023-04-25T14:33:01;5.90;;;2.13;;
80322;SDS011;69636;52.372;13.610;2023-04-25T14:35:27;7.13;;;2.38;;